sensor_id;sensor_type;location;lat;lon;timestamp;pressure;altitude;pressure_sealevel;temperature;humidity
71424;BME280;59240;51.370;-0.486;2023-01-29T00:01:23;102921.09;;;5.84;73.98
71424;BME280;59240;51.370;-0.486;2023-01-29T00:04:32;102958.03;;;6.06;73.96
71424;BME280;59240;51.370;-0.486;2023-01-29T00:07:55;102926.28;;;5.84;73.73
71424;BME280;59240;51.370;-0.486;2023-01-29T00:15:18;103033.31;;;6.40;74.71
71424;BME280;59240;51.370;-0.486;2023-01-29T00:18:23;103036.81;;;6.42;74.06
71424;BME280;59240;51.370;-0.486;2023-01-29T00:21:00;102973.63;;;6.09;73.80
71424;BME280;59240;51.370;-0.486;2023-01-29T00:23:36;102930.69;;;5.88;73.47
71424;BME280;59240;51.370;-0.486;2023-01-29T00:26:19;102975.59;;;6.16;73.78
71424;BME280;59240;51.370;-0.486;2023-01-29T00:28:55;102970.22;;;6.10;74.20
71424;BME280;59240;51.370;-0.486;2023-01-29T00:31:50;102935.81;;;5.87;74.28
71424;BME280;59240;51.370;-0.486;2023-01-29T00:34:38;102962.31;;;6.05;74.79
71424;BME280;59240;51.370;-0.486;2023-01-29T00:37:32;102928.09;;;5.88;73.94
71424;BME280;59240;51.370;-0.486;2023-01-29T00:40:07;102959.59;;;6.00;74.88
71424;BME280;59240;51.370;-0.486;2023-01-29T00:42:42;102973.63;;;6.09;74.70
71424;BME280;59240;51.370;-0.486;2023-01-29T00:45:38;102964.84;;;6.03;74.75
71424;BME280;59240;51.370;-0.486;2023-01-29T00:48:13;102943.63;;;5.88;74.74
71424;BME280;59240;51.370;-0.486;2023-01-29T00:50:49;102950.91;;;5.98;74.14
71424;BME280;59240;51.370;-0.486;2023-01-29T00:53:18;102919.16;;;5.77;74.72
71424;BME280;59240;51.370;-0.486;2023-01-29T00:55:48;102941.03;;;5.88;74.58
71424;BME280;59240;51.370;-0.486;2023-01-29T00:58:23;102924.41;;;5.80;74.90
71424;BME280;59240;51.370;-0.486;2023-01-29T01:01:11;102975.38;;;6.10;74.73
71424;BME280;59240;51.370;-0.486;2023-01-29T01:04:21;102929.66;;;5.83;74.60
71424;BME280;59240;51.370;-0.486;2023-01-29T01:06:52;102965.81;;;6.07;74.25
71424;BME280;59240;51.370;-0.486;2023-01-29T01:09:58;102957.06;;;6.03;74.31
71424;BME280;59240;51.370;-0.486;2023-01-29T01:12:48;102902.78;;;5.78;74.25
71424;BME280;59240;51.370;-0.486;2023-01-29T01:15:17;102923.97;;;5.92;75.07
71424;BME280;59240;51.370;-0.486;2023-01-29T01:17:45;102907.41;;;5.88;75.13
71424;BME280;59240;51.370;-0.486;2023-01-29T01:20:14;102926.59;;;5.93;74.30
71424;BME280;59240;51.370;-0.486;2023-01-29T01:22:57;102938.81;;;5.97;74.49
71424;BME280;59240;51.370;-0.486;2023-01-29T01:25:43;102923.88;;;5.90;74.74
71424;BME280;59240;51.370;-0.486;2023-01-29T01:28:16;102963.28;;;6.09;75.03
71424;BME280;59240;51.370;-0.486;2023-01-29T01:30:45;102967.81;;;6.16;74.88
71424;BME280;59240;51.370;-0.486;2023-01-29T01:33:15;102924.00;;;5.93;75.14
71424;BME280;59240;51.370;-0.486;2023-01-29T01:35:48;102914.13;;;5.83;74.89
71424;BME280;59240;51.370;-0.486;2023-01-29T01:38:19;102909.91;;;5.85;74.87
71424;BME280;59240;51.370;-0.486;2023-01-29T01:40:49;102919.50;;;5.89;75.21
71424;BME280;59240;51.370;-0.486;2023-01-29T01:43:17;102891.63;;;5.79;75.11
71424;BME280;59240;51.370;-0.486;2023-01-29T01:45:45;102883.41;;;5.65;74.96
71424;BME280;59240;51.370;-0.486;2023-01-29T01:48:26;102938.88;;;6.00;75.15
71424;BME280;59240;51.370;-0.486;2023-01-29T01:51:02;102874.63;;;5.60;74.90
71424;BME280;59240;51.370;-0.486;2023-01-29T01:53:56;102900.88;;;5.72;76.01
71424;BME280;59240;51.370;-0.486;2023-01-29T01:56:43;102928.03;;;5.85;74.71
71424;BME280;59240;51.370;-0.486;2023-01-29T01:59:17;102907.13;;;5.79;75.54
71424;BME280;59240;51.370;-0.486;2023-01-29T02:01:50;102931.53;;;5.87;75.31
71424;BME280;59240;51.370;-0.486;2023-01-29T02:04:24;102897.22;;;5.66;74.76
71424;BME280;59240;51.370;-0.486;2023-01-29T02:07:14;102893.81;;;5.67;75.46
71424;BME280;59240;51.370;-0.486;2023-01-29T02:10:07;102905.06;;;5.69;75.12
71424;BME280;59240;51.370;-0.486;2023-01-29T02:12:37;102931.66;;;5.90;75.37
71424;BME280;59240;51.370;-0.486;2023-01-29T02:15:05;102934.38;;;5.95;75.20
71424;BME280;59240;51.370;-0.486;2023-01-29T02:17:50;102923.78;;;5.87;74.90
71424;BME280;59240;51.370;-0.486;2023-01-29T02:20:31;102887.91;;;5.71;75.12
71424;BME280;59240;51.370;-0.486;2023-01-29T02:26:15;102933.66;;;5.99;75.81
71424;BME280;59240;51.370;-0.486;2023-01-29T02:32:06;102923.16;;;5.94;75.48
71424;BME280;59240;51.370;-0.486;2023-01-29T02:35:52;102874.84;;;5.66;75.66
71424;BME280;59240;51.370;-0.486;2023-01-29T02:45:18;102896.78;;;5.79;75.43
71424;BME280;59240;51.370;-0.486;2023-01-29T02:48:38;102990.66;;;6.29;75.29
71424;BME280;59240;51.370;-0.486;2023-01-29T02:51:27;102885.22;;;5.68;75.50
71424;BME280;59240;51.370;-0.486;2023-01-29T02:54:21;102899.34;;;5.78;75.83
71424;BME280;59240;51.370;-0.486;2023-01-29T02:57:45;102954.69;;;6.10;75.41
71424;BME280;59240;51.370;-0.486;2023-01-29T03:00:21;102949.31;;;6.03;75.83
71424;BME280;59240;51.370;-0.486;2023-01-29T03:03:29;102957.28;;;6.10;76.06
71424;BME280;59240;51.370;-0.486;2023-01-29T03:06:06;102917.03;;;5.91;75.39
71424;BME280;59240;51.370;-0.486;2023-01-29T03:08:51;102921.28;;;5.90;75.78
71424;BME280;59240;51.370;-0.486;2023-01-29T03:11:25;102934.69;;;6.04;75.47
71424;BME280;59240;51.370;-0.486;2023-01-29T03:14:46;102947.03;;;6.13;75.43
71424;BME280;59240;51.370;-0.486;2023-01-29T03:17:57;102903.06;;;5.87;75.64
71424;BME280;59240;51.370;-0.486;2023-01-29T03:21:05;102904.22;;;5.95;75.50
71424;BME280;59240;51.370;-0.486;2023-01-29T03:28:00;102862.25;;;5.77;75.63
71424;BME280;59240;51.370;-0.486;2023-01-29T03:31:08;102891.41;;;5.98;76.00
71424;BME280;59240;51.370;-0.486;2023-01-29T03:34:24;102891.44;;;6.00;76.57
71424;BME280;59240;51.370;-0.486;2023-01-29T03:37:32;102836.19;;;5.71;76.35
71424;BME280;59240;51.370;-0.486;2023-01-29T03:46:55;102817.06;;;5.66;76.13
71424;BME280;59240;51.370;-0.486;2023-01-29T03:50:06;102926.06;;;6.32;76.45
71424;BME280;59240;51.370;-0.486;2023-01-29T03:52:50;102871.56;;;5.99;76.39
71424;BME280;59240;51.370;-0.486;2023-01-29T03:55:57;102838.34;;;5.84;75.87
71424;BME280;59240;51.370;-0.486;2023-01-29T03:59:03;102822.50;;;5.75;76.30
71424;BME280;59240;51.370;-0.486;2023-01-29T04:02:22;102918.19;;;6.29;76.03
71424;BME280;59240;51.370;-0.486;2023-01-29T04:04:58;102923.41;;;6.30;76.73
71424;BME280;59240;51.370;-0.486;2023-01-29T04:07:31;102879.53;;;6.05;76.36
71424;BME280;59240;51.370;-0.486;2023-01-29T04:10:07;102892.75;;;6.16;76.29
71424;BME280;59240;51.370;-0.486;2023-01-29T04:12:39;102897.22;;;6.20;76.28
71424;BME280;59240;51.370;-0.486;2023-01-29T04:15:11;102908.66;;;6.28;76.27
71424;BME280;59240;51.370;-0.486;2023-01-29T04:17:50;102926.22;;;6.38;75.65
71424;BME280;59240;51.370;-0.486;2023-01-29T04:20:19;102920.16;;;6.38;76.91
71424;BME280;59240;51.370;-0.486;2023-01-29T04:22:47;102914.91;;;6.35;75.64
71424;BME280;59240;51.370;-0.486;2023-01-29T04:25:18;102910.53;;;6.32;76.18
71424;BME280;59240;51.370;-0.486;2023-01-29T04:28:09;102914.06;;;6.36;76.60
71424;BME280;59240;51.370;-0.486;2023-01-29T04:30:46;102920.97;;;6.35;76.25
71424;BME280;59240;51.370;-0.486;2023-01-29T04:33:40;102914.88;;;6.33;77.16
71424;BME280;59240;51.370;-0.486;2023-01-29T04:36:31;102916.59;;;6.33;75.92
71424;BME280;59240;51.370;-0.486;2023-01-29T04:42:17;102910.47;;;6.30;77.04
71424;BME280;59240;51.370;-0.486;2023-01-29T04:47:02;102910.41;;;6.29;76.04
71424;BME280;59240;51.370;-0.486;2023-01-29T04:49:55;102898.31;;;6.28;76.55
71424;BME280;59240;51.370;-0.486;2023-01-29T04:58:02;102864.19;;;6.11;76.53
71424;BME280;59240;51.370;-0.486;2023-01-29T05:00:34;102887.13;;;6.29;77.06
71424;BME280;59240;51.370;-0.486;2023-01-29T05:03:04;102864.34;;;6.17;76.52
71424;BME280;59240;51.370;-0.486;2023-01-29T05:05:31;102866.94;;;6.17;76.50
71424;BME280;59240;51.370;-0.486;2023-01-29T05:07:58;102848.59;;;6.10;76.92
71424;BME280;59240;51.370;-0.486;2023-01-29T05:10:27;102816.91;;;5.90;76.52
71424;BME280;59240;51.370;-0.486;2023-01-29T05:12:59;102821.00;;;5.82;76.29
71424;BME280;59240;51.370;-0.486;2023-01-29T05:15:38;102864.66;;;5.98;76.87
71424;BME280;59240;51.370;-0.486;2023-01-29T05:18:06;102849.63;;;5.88;76.84
71424;BME280;59240;51.370;-0.486;2023-01-29T05:20:39;102870.75;;;6.00;76.70
71424;BME280;59240;51.370;-0.486;2023-01-29T05:23:18;102852.25;;;5.89;77.41
71424;BME280;59240;51.370;-0.486;2023-01-29T05:25:46;102883.97;;;6.11;76.93
71424;BME280;59240;51.370;-0.486;2023-01-29T05:28:13;102839.50;;;5.94;77.13
71424;BME280;59240;51.370;-0.486;2023-01-29T05:30:44;102863.28;;;6.11;77.14
71424;BME280;59240;51.370;-0.486;2023-01-29T05:33:28;102836.31;;;6.02;77.77
71424;BME280;59240;51.370;-0.486;2023-01-29T05:35:55;102819.69;;;5.94;77.00
71424;BME280;59240;51.370;-0.486;2023-01-29T05:38:24;102838.78;;;5.98;76.53
71424;BME280;59240;51.370;-0.486;2023-01-29T05:40:51;102823.00;;;5.90;77.01
71424;BME280;59240;51.370;-0.486;2023-01-29T05:43:19;102837.06;;;5.98;77.49
71424;BME280;59240;51.370;-0.486;2023-01-29T05:45:54;102822.31;;;5.96;76.79
71424;BME280;59240;51.370;-0.486;2023-01-29T05:48:22;102838.91;;;6.02;77.23
71424;BME280;59240;51.370;-0.486;2023-01-29T05:50:49;102824.06;;;5.97;77.63
71424;BME280;59240;51.370;-0.486;2023-01-29T05:53:18;102796.84;;;5.81;77.71
71424;BME280;59240;51.370;-0.486;2023-01-29T05:55:46;102773.28;;;5.72;77.42
71424;BME280;59240;51.370;-0.486;2023-01-29T05:58:15;102809.25;;;5.91;77.38
71424;BME280;59240;51.370;-0.486;2023-01-29T06:00:45;102798.69;;;5.85;76.65
71424;BME280;59240;51.370;-0.486;2023-01-29T06:03:11;102808.50;;;5.95;77.09
71424;BME280;59240;51.370;-0.486;2023-01-29T06:05:39;102833.94;;;6.10;77.79
71424;BME280;59240;51.370;-0.486;2023-01-29T06:08:06;102806.75;;;5.94;76.78
71424;BME280;59240;51.370;-0.486;2023-01-29T06:10:33;102802.44;;;5.95;76.83
71424;BME280;59240;51.370;-0.486;2023-01-29T06:13:00;102792.75;;;5.89;77.21
71424;BME280;59240;51.370;-0.486;2023-01-29T06:15:27;102763.97;;;5.77;77.51
71424;BME280;59240;51.370;-0.486;2023-01-29T06:17:54;102796.22;;;5.90;77.27
71424;BME280;59240;51.370;-0.486;2023-01-29T06:20:24;102764.66;;;5.71;76.82
71424;BME280;59240;51.370;-0.486;2023-01-29T06:22:50;102825.19;;;6.05;76.81
71424;BME280;59240;51.370;-0.486;2023-01-29T06:25:17;102764.63;;;5.70;77.38
71424;BME280;59240;51.370;-0.486;2023-01-29T06:27:44;102776.84;;;5.75;76.98
71424;BME280;59240;51.370;-0.486;2023-01-29T06:30:14;102823.44;;;6.04;77.34
71424;BME280;59240;51.370;-0.486;2023-01-29T06:32:41;102756.75;;;5.67;76.89
71424;BME280;59240;51.370;-0.486;2023-01-29T06:35:11;102762.06;;;5.71;77.17
71424;BME280;59240;51.370;-0.486;2023-01-29T06:37:41;102799.78;;;5.92;77.54
71424;BME280;59240;51.370;-0.486;2023-01-29T06:40:08;102791.78;;;5.84;77.30
71424;BME280;59240;51.370;-0.486;2023-01-29T06:42:35;102804.09;;;5.91;77.61
71424;BME280;59240;51.370;-0.486;2023-01-29T06:45:01;102783.19;;;5.85;77.30
71424;BME280;59240;51.370;-0.486;2023-01-29T06:47:28;102755.19;;;5.72;77.63
71424;BME280;59240;51.370;-0.486;2023-01-29T06:49:57;102784.09;;;5.87;77.09
71424;BME280;59240;51.370;-0.486;2023-01-29T06:52:30;102781.44;;;5.84;77.22
71424;BME280;59240;51.370;-0.486;2023-01-29T06:54:56;102794.69;;;5.95;77.20
71424;BME280;59240;51.370;-0.486;2023-01-29T06:57:30;102758.81;;;5.77;76.70
71424;BME280;59240;51.370;-0.486;2023-01-29T06:59:59;102786.03;;;5.93;77.12
71424;BME280;59240;51.370;-0.486;2023-01-29T07:02:25;102767.47;;;5.79;76.89
71424;BME280;59240;51.370;-0.486;2023-01-29T07:04:59;102762.47;;;5.85;77.02
71424;BME280;59240;51.370;-0.486;2023-01-29T07:07:29;102784.44;;;5.98;77.28
71424;BME280;59240;51.370;-0.486;2023-01-29T07:09:55;102758.06;;;5.83;77.05
71424;BME280;59240;51.370;-0.486;2023-01-29T07:12:22;102753.06;;;5.87;76.81
71424;BME280;59240;51.370;-0.486;2023-01-29T07:15:21;102780.38;;;6.06;76.97
71424;BME280;59240;51.370;-0.486;2023-01-29T07:17:59;102765.53;;;6.00;77.07
71424;BME280;59240;51.370;-0.486;2023-01-29T07:20:40;102685.69;;;5.53;76.44
71424;BME280;59240;51.370;-0.486;2023-01-29T07:23:15;102787.31;;;6.09;77.19
71424;BME280;59240;51.370;-0.486;2023-01-29T07:25:45;102774.88;;;5.95;76.16
71424;BME280;59240;51.370;-0.486;2023-01-29T07:28:12;102797.50;;;6.02;76.88
71424;BME280;59240;51.370;-0.486;2023-01-29T07:31:00;102741.16;;;5.64;76.37
71424;BME280;59240;51.370;-0.486;2023-01-29T07:33:30;102737.75;;;5.65;76.50
71424;BME280;59240;51.370;-0.486;2023-01-29T07:36:00;102719.94;;;5.45;76.21
71424;BME280;59240;51.370;-0.486;2023-01-29T07:38:29;102758.53;;;5.69;76.58
71424;BME280;59240;51.370;-0.486;2023-01-29T07:41:03;102770.91;;;5.78;76.79
71424;BME280;59240;51.370;-0.486;2023-01-29T07:43:36;102748.97;;;5.65;77.30
71424;BME280;59240;51.370;-0.486;2023-01-29T07:46:10;102741.16;;;5.64;77.29
71424;BME280;59240;51.370;-0.486;2023-01-29T07:48:38;102778.78;;;5.83;77.45
71424;BME280;59240;51.370;-0.486;2023-01-29T07:51:05;102747.97;;;5.62;77.26
71424;BME280;59240;51.370;-0.486;2023-01-29T07:53:31;102772.53;;;5.76;77.21
71424;BME280;59240;51.370;-0.486;2023-01-29T07:56:01;102777.81;;;5.79;76.93
71424;BME280;59240;51.370;-0.486;2023-01-29T07:58:28;102759.50;;;5.71;77.04
71424;BME280;59240;51.370;-0.486;2023-01-29T08:00:57;102699.97;;;5.41;77.15
71424;BME280;59240;51.370;-0.486;2023-01-29T08:03:29;102716.63;;;5.49;77.47
71424;BME280;59240;51.370;-0.486;2023-01-29T08:06:05;102788.56;;;5.91;76.99
71424;BME280;59240;51.370;-0.486;2023-01-29T08:08:34;102724.53;;;5.56;77.37
71424;BME280;59240;51.370;-0.486;2023-01-29T08:11:03;102741.44;;;5.73;77.26
71424;BME280;59240;51.370;-0.486;2023-01-29T08:13:31;102789.72;;;6.02;78.08
71424;BME280;59240;51.370;-0.486;2023-01-29T08:16:00;102762.47;;;5.85;76.78
71424;BME280;59240;51.370;-0.486;2023-01-29T08:18:32;102705.63;;;5.57;77.43
71424;BME280;59240;51.370;-0.486;2023-01-29T08:21:02;102734.69;;;5.78;77.11
71424;BME280;59240;51.370;-0.486;2023-01-29T08:23:29;102749.81;;;5.93;77.69
71424;BME280;59240;51.370;-0.486;2023-01-29T08:25:56;102738.38;;;5.86;77.46
71424;BME280;59240;51.370;-0.486;2023-01-29T08:28:22;102757.84;;;6.03;77.25
71424;BME280;59240;51.370;-0.486;2023-01-29T08:31:00;102719.53;;;5.90;77.02
71424;BME280;59240;51.370;-0.486;2023-01-29T08:33:30;102703.91;;;5.87;77.22
71424;BME280;59240;51.370;-0.486;2023-01-29T08:36:05;102742.44;;;6.07;77.25
71424;BME280;59240;51.370;-0.486;2023-01-29T08:38:32;102711.78;;;5.90;77.63
71424;BME280;59240;51.370;-0.486;2023-01-29T08:40:58;102714.53;;;5.96;77.14
71424;BME280;59240;51.370;-0.486;2023-01-29T08:43:25;102752.25;;;6.18;78.04
71424;BME280;59240;51.370;-0.486;2023-01-29T08:45:54;102767.22;;;6.30;76.98
71424;BME280;59240;51.370;-0.486;2023-01-29T08:48:23;102783.19;;;6.45;76.97
71424;BME280;59240;51.370;-0.486;2023-01-29T08:50:50;102728.91;;;6.17;77.85
71424;BME280;59240;51.370;-0.486;2023-01-29T08:53:17;102723.72;;;6.17;78.40
71424;BME280;59240;51.370;-0.486;2023-01-29T08:55:53;102758.03;;;6.41;77.43
71424;BME280;59240;51.370;-0.486;2023-01-29T08:58:28;102709.06;;;6.17;77.31
71424;BME280;59240;51.370;-0.486;2023-01-29T09:01:16;102762.56;;;6.48;77.57
71424;BME280;59240;51.370;-0.486;2023-01-29T09:03:45;102744.28;;;6.44;77.77
71424;BME280;59240;51.370;-0.486;2023-01-29T09:06:13;102769.88;;;6.65;78.01
71424;BME280;59240;51.370;-0.486;2023-01-29T09:08:40;102747.09;;;6.51;78.14
71424;BME280;59240;51.370;-0.486;2023-01-29T09:11:07;102740.25;;;6.53;77.53
71424;BME280;59240;51.370;-0.486;2023-01-29T09:13:34;102729.03;;;6.53;78.05
71424;BME280;59240;51.370;-0.486;2023-01-29T09:16:02;102678.13;;;6.20;77.80
71424;BME280;59240;51.370;-0.486;2023-01-29T09:18:31;102753.66;;;6.72;77.70
71424;BME280;59240;51.370;-0.486;2023-01-29T09:21:01;102758.09;;;6.76;78.20
71424;BME280;59240;51.370;-0.486;2023-01-29T09:23:29;102722.28;;;6.60;77.81
71424;BME280;59240;51.370;-0.486;2023-01-29T09:25:56;102726.09;;;6.74;77.85
71424;BME280;59240;51.370;-0.486;2023-01-29T09:28:25;102700.63;;;6.57;77.53
71424;BME280;59240;51.370;-0.486;2023-01-29T09:31:09;102760.47;;;7.01;77.52
71424;BME280;59240;51.370;-0.486;2023-01-29T09:34:39;102696.63;;;6.70;78.20
71424;BME280;59240;51.370;-0.486;2023-01-29T09:37:53;102713.38;;;6.83;77.13
71424;BME280;59240;51.370;-0.486;2023-01-29T09:43:22;102770.63;;;7.30;77.68
71424;BME280;59240;51.370;-0.486;2023-01-29T09:48:58;102721.19;;;7.21;77.63
71424;BME280;59240;51.370;-0.486;2023-01-29T09:51:52;102725.53;;;7.22;77.53
71424;BME280;59240;51.370;-0.486;2023-01-29T09:54:31;102757.31;;;7.52;77.42
71424;BME280;59240;51.370;-0.486;2023-01-29T09:57:18;102756.59;;;7.59;77.46
71424;BME280;59240;51.370;-0.486;2023-01-29T09:59:50;102676.19;;;7.19;77.20
71424;BME280;59240;51.370;-0.486;2023-01-29T10:03:32;102757.81;;;7.75;77.25
71424;BME280;59240;51.370;-0.486;2023-01-29T10:14:13;102686.44;;;7.53;78.02
71424;BME280;59240;51.370;-0.486;2023-01-29T10:17:11;102755.69;;;7.97;77.63
71424;BME280;59240;51.370;-0.486;2023-01-29T10:25:27;102673.44;;;7.50;78.44
71424;BME280;59240;51.370;-0.486;2023-01-29T10:28:02;102690.00;;;7.58;77.53
71424;BME280;59240;51.370;-0.486;2023-01-29T10:30:35;102733.06;;;7.91;78.03
71424;BME280;59240;51.370;-0.486;2023-01-29T10:33:26;102731.44;;;7.96;78.91
71424;BME280;59240;51.370;-0.486;2023-01-29T10:36:45;102707.91;;;7.88;78.41
71424;BME280;59240;51.370;-0.486;2023-01-29T10:39:19;102696.66;;;7.88;78.41
71424;BME280;59240;51.370;-0.486;2023-01-29T10:42:13;102741.31;;;8.15;77.86
71424;BME280;59240;51.370;-0.486;2023-01-29T10:48:20;102725.97;;;8.26;78.33
71424;BME280;59240;51.370;-0.486;2023-01-29T10:53:56;102722.75;;;8.38;78.47
71424;BME280;59240;51.370;-0.486;2023-01-29T10:59:34;102680.22;;;8.33;78.62
71424;BME280;59240;51.370;-0.486;2023-01-29T11:02:12;102630.63;;;8.17;77.33
71424;BME280;59240;51.370;-0.486;2023-01-29T11:04:43;102629.81;;;8.21;77.63
71424;BME280;59240;51.370;-0.486;2023-01-29T11:07:15;102641.28;;;8.34;77.99
71424;BME280;59240;51.370;-0.486;2023-01-29T11:12:37;102651.91;;;8.45;77.71
71424;BME280;59240;51.370;-0.486;2023-01-29T11:15:14;102589.91;;;8.16;78.10
71424;BME280;59240;51.370;-0.486;2023-01-29T11:18:05;102687.00;;;8.73;76.57
71424;BME280;59240;51.370;-0.486;2023-01-29T11:20:33;102625.09;;;8.49;77.32
71424;BME280;59240;51.370;-0.486;2023-01-29T11:23:02;102644.38;;;8.63;77.52
71424;BME280;59240;51.370;-0.486;2023-01-29T11:25:30;102616.44;;;8.47;77.65
71424;BME280;59240;51.370;-0.486;2023-01-29T11:28:01;102632.88;;;8.46;77.10
71424;BME280;59240;51.370;-0.486;2023-01-29T11:30:34;102612.78;;;8.36;78.59
71424;BME280;59240;51.370;-0.486;2023-01-29T11:35:35;102641.63;;;8.51;78.09
71424;BME280;59240;51.370;-0.486;2023-01-29T11:38:28;102651.31;;;8.63;79.00
71424;BME280;59240;51.370;-0.486;2023-01-29T11:41:15;102590.19;;;8.32;78.67
71424;BME280;59240;51.370;-0.486;2023-01-29T11:43:50;102611.25;;;8.50;78.67
71424;BME280;59240;51.370;-0.486;2023-01-29T11:46:17;102591.28;;;8.44;78.05
71424;BME280;59240;51.370;-0.486;2023-01-29T11:48:46;102566.81;;;8.32;78.67
71424;BME280;59240;51.370;-0.486;2023-01-29T11:51:35;102634.06;;;8.68;79.58
71424;BME280;59240;51.370;-0.486;2023-01-29T11:54:11;102601.06;;;8.62;78.97
71424;BME280;59240;51.370;-0.486;2023-01-29T11:56:44;102603.69;;;8.64;79.41
71424;BME280;59240;51.370;-0.486;2023-01-29T11:59:40;102613.50;;;8.82;80.21
71424;BME280;59240;51.370;-0.486;2023-01-29T12:04:59;102566.50;;;8.66;78.91
71424;BME280;59240;51.370;-0.486;2023-01-29T12:07:29;102596.25;;;8.87;78.37
71424;BME280;59240;51.370;-0.486;2023-01-29T12:09:58;102553.53;;;8.69;79.14
71424;BME280;59240;51.370;-0.486;2023-01-29T12:12:26;102576.44;;;8.95;78.57
71424;BME280;59240;51.370;-0.486;2023-01-29T12:17:36;102537.97;;;8.69;80.94
71424;BME280;59240;51.370;-0.486;2023-01-29T12:20:18;102564.22;;;8.88;79.29
71424;BME280;59240;51.370;-0.486;2023-01-29T12:22:49;102568.63;;;8.95;80.32
71424;BME280;59240;51.370;-0.486;2023-01-29T12:25:24;102545.16;;;8.90;79.31
71424;BME280;59240;51.370;-0.486;2023-01-29T12:30:37;102551.47;;;9.06;78.92
71424;BME280;59240;51.370;-0.486;2023-01-29T12:33:29;102483.53;;;8.79;79.82
71424;BME280;59240;51.370;-0.486;2023-01-29T12:36:16;102449.59;;;8.68;79.34
71424;BME280;59240;51.370;-0.486;2023-01-29T12:38:53;102498.63;;;9.12;78.55
71424;BME280;59240;51.370;-0.486;2023-01-29T12:47:22;102519.06;;;9.54;79.31
71424;BME280;59240;51.370;-0.486;2023-01-29T12:49:55;102455.41;;;9.20;78.78
71424;BME280;59240;51.370;-0.486;2023-01-29T12:52:42;102506.00;;;9.52;78.16
71424;BME280;59240;51.370;-0.486;2023-01-29T12:55:24;102495.66;;;9.58;79.07
71424;BME280;59240;51.370;-0.486;2023-01-29T12:58:01;102453.84;;;9.39;77.65
71424;BME280;59240;51.370;-0.486;2023-01-29T13:00:35;102487.94;;;9.66;78.48
71424;BME280;59240;51.370;-0.486;2023-01-29T13:05:54;102415.75;;;9.42;78.08
71424;BME280;59240;51.370;-0.486;2023-01-29T13:08:35;102473.25;;;9.74;77.88
71424;BME280;59240;51.370;-0.486;2023-01-29T13:11:18;102413.22;;;9.53;78.49
71424;BME280;59240;51.370;-0.486;2023-01-29T13:13:51;102452.53;;;9.82;79.06
71424;BME280;59240;51.370;-0.486;2023-01-29T13:16:33;102443.00;;;9.85;78.20
71424;BME280;59240;51.370;-0.486;2023-01-29T13:21:50;102355.97;;;9.48;78.49
71424;BME280;59240;51.370;-0.486;2023-01-29T13:24:22;102425.63;;;9.87;77.08
71424;BME280;59240;51.370;-0.486;2023-01-29T13:26:50;102394.31;;;9.72;77.54
71424;BME280;59240;51.370;-0.486;2023-01-29T13:29:29;102396.06;;;9.75;78.59
71424;BME280;59240;51.370;-0.486;2023-01-29T13:32:01;102424.81;;;9.93;78.22
71424;BME280;59240;51.370;-0.486;2023-01-29T13:34:52;102394.38;;;9.81;78.13
71424;BME280;59240;51.370;-0.486;2023-01-29T13:37:33;102361.28;;;9.65;77.55
71424;BME280;59240;51.370;-0.486;2023-01-29T13:40:03;102398.75;;;9.85;78.01
71424;BME280;59240;51.370;-0.486;2023-01-29T13:42:36;102404.84;;;9.91;77.37
71424;BME280;59240;51.370;-0.486;2023-01-29T13:45:21;102359.59;;;9.70;78.34
71424;BME280;59240;51.370;-0.486;2023-01-29T13:47:50;102376.31;;;10.06;77.88
71424;BME280;59240;51.370;-0.486;2023-01-29T13:50:34;102345.03;;;9.98;77.70
71424;BME280;59240;51.370;-0.486;2023-01-29T13:53:04;102349.41;;;10.04;77.37
71424;BME280;59240;51.370;-0.486;2023-01-29T13:55:37;102360.69;;;10.07;77.86
71424;BME280;59240;51.370;-0.486;2023-01-29T13:58:16;102345.03;;;9.98;77.12
71424;BME280;59240;51.370;-0.486;2023-01-29T14:00:49;102378.97;;;10.18;77.64
71424;BME280;59240;51.370;-0.486;2023-01-29T14:05:56;102351.13;;;10.03;78.03
71424;BME280;59240;51.370;-0.486;2023-01-29T14:08:43;102382.53;;;10.23;78.16
71424;BME280;59240;51.370;-0.486;2023-01-29T14:13:46;102340.75;;;10.11;77.12
71424;BME280;59240;51.370;-0.486;2023-01-29T14:18:50;102303.38;;;10.00;77.26
71424;BME280;59240;51.370;-0.486;2023-01-29T14:21:27;102312.94;;;10.07;77.56
71424;BME280;59240;51.370;-0.486;2023-01-29T14:24:17;102353.03;;;10.30;79.38
71424;BME280;59240;51.370;-0.486;2023-01-29T14:26:47;102310.34;;;10.04;78.39
71424;BME280;59240;51.370;-0.486;2023-01-29T14:29:18;102334.72;;;10.17;78.21
71424;BME280;59240;51.370;-0.486;2023-01-29T14:34:41;102247.69;;;9.70;78.67
71424;BME280;59240;51.370;-0.486;2023-01-29T14:37:19;102336.50;;;10.25;79.59
71424;BME280;59240;51.370;-0.486;2023-01-29T14:39:51;102345.19;;;10.24;78.93
71424;BME280;59240;51.370;-0.486;2023-01-29T14:52:45;102309.50;;;10.11;78.35
71424;BME280;59240;51.370;-0.486;2023-01-29T14:55:38;102246.88;;;9.80;78.26
71424;BME280;59240;51.370;-0.486;2023-01-29T14:58:12;102297.34;;;10.10;78.73
71424;BME280;59240;51.370;-0.486;2023-01-29T15:00:43;102300.81;;;10.12;77.96
71424;BME280;59240;51.370;-0.486;2023-01-29T15:03:35;102326.97;;;10.33;79.67
71424;BME280;59240;51.370;-0.486;2023-01-29T15:06:06;102300.91;;;10.27;78.03
71424;BME280;59240;51.370;-0.486;2023-01-29T15:08:39;102291.31;;;10.20;79.12
71424;BME280;59240;51.370;-0.486;2023-01-29T15:11:48;102307.91;;;10.40;78.13
71424;BME280;59240;51.370;-0.486;2023-01-29T15:14:25;102300.97;;;10.46;78.26
71424;BME280;59240;51.370;-0.486;2023-01-29T15:17:21;102309.66;;;10.45;79.16
71424;BME280;59240;51.370;-0.486;2023-01-29T15:19:48;102278.38;;;10.32;78.59
71424;BME280;59240;51.370;-0.486;2023-01-29T15:22:20;102293.13;;;10.41;78.90
71424;BME280;59240;51.370;-0.486;2023-01-29T15:25:02;102313.13;;;10.45;78.16
71424;BME280;59240;51.370;-0.486;2023-01-29T15:27:30;102270.47;;;10.20;78.24
71424;BME280;59240;51.370;-0.486;2023-01-29T15:30:03;102285.31;;;10.30;79.16
71424;BME280;59240;51.370;-0.486;2023-01-29T15:32:34;102296.59;;;10.35;78.85
71424;BME280;59240;51.370;-0.486;2023-01-29T15:35:06;102307.91;;;10.50;78.19
71424;BME280;59240;51.370;-0.486;2023-01-29T15:37:35;102253.09;;;10.18;78.80